Terminal Aerodrome Forecast
Issued by NWS

Home | Current Version | Previous Version | Text Only | Print | Product List | Glossary On
Versions: 1 2 3 4 5 6 7 8 9 10 11 12 13 14
469
FTUS44 KTSA 161120
TAFMLC
TAF
KMLC 161120Z 1612/1712 19007KT P6SM BKN250
     FM161600 19014G23KT P6SM BKN150
     FM170000 17013KT P6SM BKN040
     FM170300 17012KT P6SM VCSH BKN025 OVC040
     FM170500 17010KT 4SM -RA BR OVC015
     FM171000 17007KT 4SM BR OVC007=

USA.gov is the U.S. government's official web portal to all federal, state and local government web resources and services.